sensor_id;sensor_type;location;lat;lon;timestamp;pressure;altitude;pressure_sealevel;temperature;humidity
18784;BME280;9520;50.954;6.968;2023-05-11T00:00:18;100827.53;;;20.15;52.24
18784;BME280;9520;50.954;6.968;2023-05-11T00:00:40;100827.53;;;20.15;52.04
18784;BME280;9520;50.954;6.968;2023-05-11T00:01:05;100827.53;;;20.15;51.70
18784;BME280;9520;50.954;6.968;2023-05-11T00:01:26;100838.00;;;20.19;51.39
18784;BME280;9520;50.954;6.968;2023-05-11T00:01:48;100832.41;;;20.24;51.37
18784;BME280;9520;50.954;6.968;2023-05-11T00:02:11;100834.13;;;20.25;51.58
18784;BME280;9520;50.954;6.968;2023-05-11T00:02:32;100830.66;;;20.23;50.98
18784;BME280;9520;50.954;6.968;2023-05-11T00:02:55;100830.13;;;20.16;50.92
18784;BME280;9520;50.954;6.968;2023-05-11T00:03:17;100836.19;;;20.20;51.07
18784;BME280;9520;50.954;6.968;2023-05-11T00:03:39;100836.84;;;20.08;51.82
18784;BME280;9520;50.954;6.968;2023-05-11T00:04:27;100839.97;;;20.16;52.26
18784;BME280;9520;50.954;6.968;2023-05-11T00:05:09;100836.97;;;20.05;51.06
18784;BME280;9520;50.954;6.968;2023-05-11T00:05:31;100828.88;;;20.06;51.13
18784;BME280;9520;50.954;6.968;2023-05-11T00:05:53;100825.34;;;20.06;51.45
18784;BME280;9520;50.954;6.968;2023-05-11T00:06:15;100829.66;;;20.08;51.25
18784;BME280;9520;50.954;6.968;2023-05-11T00:06:37;100832.25;;;20.10;51.63
18784;BME280;9520;50.954;6.968;2023-05-11T00:06:59;100836.69;;;20.11;51.37
18784;BME280;9520;50.954;6.968;2023-05-11T00:07:21;100822.59;;;20.07;51.05
18784;BME280;9520;50.954;6.968;2023-05-11T00:07:42;100831.31;;;20.11;51.40
18784;BME280;9520;50.954;6.968;2023-05-11T00:08:05;100837.53;;;20.11;52.18
18784;BME280;9520;50.954;6.968;2023-05-11T00:08:52;100831.25;;;20.12;52.24
18784;BME280;9520;50.954;6.968;2023-05-11T00:09:15;100828.47;;;20.14;52.25
18784;BME280;9520;50.954;6.968;2023-05-11T00:09:39;100838.16;;;20.16;52.44
18784;BME280;9520;50.954;6.968;2023-05-11T00:10:03;100835.56;;;20.15;52.37
18784;BME280;9520;50.954;6.968;2023-05-11T00:10:29;100833.81;;;20.14;52.04
18784;BME280;9520;50.954;6.968;2023-05-11T00:10:52;100835.56;;;20.15;52.50
18784;BME280;9520;50.954;6.968;2023-05-11T00:11:19;100832.88;;;20.15;51.74
18784;BME280;9520;50.954;6.968;2023-05-11T00:11:42;100830.22;;;20.15;51.87
18784;BME280;9520;50.954;6.968;2023-05-11T00:12:05;100833.69;;;20.17;51.79
18784;BME280;9520;50.954;6.968;2023-05-11T00:12:30;100831.00;;;20.17;51.60
18784;BME280;9520;50.954;6.968;2023-05-11T00:12:52;100834.56;;;20.17;52.30
18784;BME280;9520;50.954;6.968;2023-05-11T00:13:15;100836.50;;;20.14;52.02
18784;BME280;9520;50.954;6.968;2023-05-11T00:13:40;100829.50;;;20.11;50.96
18784;BME280;9520;50.954;6.968;2023-05-11T00:14:03;100832.19;;;20.11;51.43
18784;BME280;9520;50.954;6.968;2023-05-11T00:14:29;100829.56;;;20.10;51.39
18784;BME280;9520;50.954;6.968;2023-05-11T00:14:53;100828.56;;;20.12;51.60
18784;BME280;9520;50.954;6.968;2023-05-11T00:15:16;100831.69;;;20.03;51.12
18784;BME280;9520;50.954;6.968;2023-05-11T00:15:40;100825.66;;;20.00;50.93
18784;BME280;9520;50.954;6.968;2023-05-11T00:16:05;100832.75;;;20.01;52.19
18784;BME280;9520;50.954;6.968;2023-05-11T00:16:27;100831.94;;;19.99;51.53
18784;BME280;9520;50.954;6.968;2023-05-11T00:16:49;100828.38;;;19.98;51.15
18784;BME280;9520;50.954;6.968;2023-05-11T00:17:14;100827.44;;;19.99;51.74
18784;BME280;9520;50.954;6.968;2023-05-11T00:17:39;100824.78;;;19.99;52.14
18784;BME280;9520;50.954;6.968;2023-05-11T00:18:01;100824.63;;;20.02;52.02
18784;BME280;9520;50.954;6.968;2023-05-11T00:18:24;100820.69;;;19.92;52.01
18784;BME280;9520;50.954;6.968;2023-05-11T00:18:49;100822.72;;;20.04;52.90
18784;BME280;9520;50.954;6.968;2023-05-11T00:19:13;100828.19;;;20.03;52.23
18784;BME280;9520;50.954;6.968;2023-05-11T00:19:37;100827.22;;;20.04;53.05
18784;BME280;9520;50.954;6.968;2023-05-11T00:19:58;100830.69;;;20.06;53.20
18784;BME280;9520;50.954;6.968;2023-05-11T00:20:22;100827.06;;;20.07;53.50
18784;BME280;9520;50.954;6.968;2023-05-11T00:20:48;100833.94;;;20.12;54.12
18784;BME280;9520;50.954;6.968;2023-05-11T00:21:17;100823.97;;;20.14;54.25
18784;BME280;9520;50.954;6.968;2023-05-11T00:21:39;100826.59;;;20.16;53.36
18784;BME280;9520;50.954;6.968;2023-05-11T00:22:01;100833.75;;;20.15;52.39
18784;BME280;9520;50.954;6.968;2023-05-11T00:22:30;100823.13;;;20.14;51.79
18784;BME280;9520;50.954;6.968;2023-05-11T00:22:52;100825.78;;;20.14;52.18
18784;BME280;9520;50.954;6.968;2023-05-11T00:23:15;100820.53;;;20.12;52.60
18784;BME280;9520;50.954;6.968;2023-05-11T00:23:37;100821.38;;;20.13;52.07
18784;BME280;9520;50.954;6.968;2023-05-11T00:24:00;100824.91;;;20.13;51.76
18784;BME280;9520;50.954;6.968;2023-05-11T00:24:22;100814.78;;;20.03;51.72
18784;BME280;9520;50.954;6.968;2023-05-11T00:24:46;100813.69;;;20.07;52.24
18784;BME280;9520;50.954;6.968;2023-05-11T00:25:22;100824.41;;;20.07;52.93
18784;BME280;9520;50.954;6.968;2023-05-11T00:25:48;100818.94;;;20.08;52.57
18784;BME280;9520;50.954;6.968;2023-05-11T00:26:12;100813.69;;;20.07;51.91
18784;BME280;9520;50.954;6.968;2023-05-11T00:26:44;100819.81;;;20.09;51.98
18784;BME280;9520;50.954;6.968;2023-05-11T00:27:21;100824.47;;;20.05;52.25
18784;BME280;9520;50.954;6.968;2023-05-11T00:27:44;100825.81;;;19.97;51.80
18784;BME280;9520;50.954;6.968;2023-05-11T00:28:09;100826.75;;;19.96;52.55
18784;BME280;9520;50.954;6.968;2023-05-11T00:29:17;100816.91;;;19.96;52.62
18784;BME280;9520;50.954;6.968;2023-05-11T00:29:40;100823.84;;;20.00;52.84
18784;BME280;9520;50.954;6.968;2023-05-11T00:30:01;100830.13;;;19.99;52.25
18784;BME280;9520;50.954;6.968;2023-05-11T00:30:23;100831.00;;;20.00;52.56
18784;BME280;9520;50.954;6.968;2023-05-11T00:30:45;100822.03;;;20.01;52.84
18784;BME280;9520;50.954;6.968;2023-05-11T00:31:07;100821.00;;;20.03;52.88
18784;BME280;9520;50.954;6.968;2023-05-11T00:31:29;100822.66;;;20.06;53.49
18784;BME280;9520;50.954;6.968;2023-05-11T00:31:51;100825.16;;;20.09;53.54
18784;BME280;9520;50.954;6.968;2023-05-11T00:32:12;100824.28;;;20.08;53.70
18784;BME280;9520;50.954;6.968;2023-05-11T00:32:34;100824.22;;;20.10;53.86
18784;BME280;9520;50.954;6.968;2023-05-11T00:32:57;100828.56;;;20.12;53.68
18784;BME280;9520;50.954;6.968;2023-05-11T00:33:19;100825.97;;;20.11;53.20
18784;BME280;9520;50.954;6.968;2023-05-11T00:33:40;100832.09;;;20.13;52.73
18784;BME280;9520;50.954;6.968;2023-05-11T00:34:02;100828.41;;;20.15;52.91
18784;BME280;9520;50.954;6.968;2023-05-11T00:34:24;100829.28;;;20.16;52.01
18784;BME280;9520;50.954;6.968;2023-05-11T00:34:47;100824.91;;;20.13;52.12
18784;BME280;9520;50.954;6.968;2023-05-11T00:35:09;100825.78;;;20.14;51.76
18784;BME280;9520;50.954;6.968;2023-05-11T00:35:32;100829.28;;;20.16;51.46
18784;BME280;9520;50.954;6.968;2023-05-11T00:35:54;100819.41;;;20.16;52.38
18784;BME280;9520;50.954;6.968;2023-05-11T00:36:17;100823.75;;;20.19;51.91
18784;BME280;9520;50.954;6.968;2023-05-11T00:36:38;100819.50;;;20.15;52.12
18784;BME280;9520;50.954;6.968;2023-05-11T00:37:03;100827.34;;;20.18;52.10
18784;BME280;9520;50.954;6.968;2023-05-11T00:37:25;100823.75;;;20.19;51.67
18784;BME280;9520;50.954;6.968;2023-05-11T00:37:50;100821.00;;;20.20;52.73
18784;BME280;9520;50.954;6.968;2023-05-11T00:38:11;100828.94;;;20.22;52.14
18784;BME280;9520;50.954;6.968;2023-05-11T00:38:33;100824.53;;;20.21;51.83
18784;BME280;9520;50.954;6.968;2023-05-11T00:38:57;100818.56;;;20.16;51.82
18784;BME280;9520;50.954;6.968;2023-05-11T00:39:20;100818.56;;;20.16;52.38
18784;BME280;9520;50.954;6.968;2023-05-11T00:39:43;100819.25;;;20.19;52.79
18784;BME280;9520;50.954;6.968;2023-05-11T00:40:06;100823.75;;;20.19;53.41
18784;BME280;9520;50.954;6.968;2023-05-11T00:40:29;100822.78;;;20.20;53.34
18784;BME280;9520;50.954;6.968;2023-05-11T00:40:52;100806.97;;;20.15;53.14
18784;BME280;9520;50.954;6.968;2023-05-11T00:41:14;100813.97;;;20.18;53.15
18784;BME280;9520;50.954;6.968;2023-05-11T00:41:36;100816.44;;;20.22;53.09
18784;BME280;9520;50.954;6.968;2023-05-11T00:41:58;100823.66;;;20.20;52.23
18784;BME280;9520;50.954;6.968;2023-05-11T00:42:19;100821.00;;;20.20;52.17
18784;BME280;9520;50.954;6.968;2023-05-11T00:42:42;100813.97;;;20.18;51.48
18784;BME280;9520;50.954;6.968;2023-05-11T00:43:04;100821.94;;;20.19;51.76
18784;BME280;9520;50.954;6.968;2023-05-11T00:43:25;100824.59;;;20.19;52.19
18784;BME280;9520;50.954;6.968;2023-05-11T00:43:47;100818.13;;;20.23;52.66
18784;BME280;9520;50.954;6.968;2023-05-11T00:44:09;100823.41;;;20.25;53.12
18784;BME280;9520;50.954;6.968;2023-05-11T00:44:32;100820.75;;;20.25;52.38
18784;BME280;9520;50.954;6.968;2023-05-11T00:44:54;100811.78;;;20.26;51.92
18784;BME280;9520;50.954;6.968;2023-05-11T00:45:16;100822.41;;;20.27;51.50
18784;BME280;9520;50.954;6.968;2023-05-11T00:45:37;100812.72;;;20.25;51.43
18784;BME280;9520;50.954;6.968;2023-05-11T00:46:01;100817.78;;;20.31;52.74
18784;BME280;9520;50.954;6.968;2023-05-11T00:46:23;100812.47;;;20.30;53.08
18784;BME280;9520;50.954;6.968;2023-05-11T00:46:45;100824.00;;;20.32;53.62
18784;BME280;9520;50.954;6.968;2023-05-11T00:47:07;100818.66;;;20.32;53.05
18784;BME280;9520;50.954;6.968;2023-05-11T00:47:30;100825.00;;;20.29;53.48
18784;BME280;9520;50.954;6.968;2023-05-11T00:47:52;100819.59;;;20.31;52.93
18784;BME280;9520;50.954;6.968;2023-05-11T00:48:14;100819.72;;;20.27;52.31
18784;BME280;9520;50.954;6.968;2023-05-11T00:48:36;100824.28;;;20.25;51.74
18784;BME280;9520;50.954;6.968;2023-05-11T00:48:59;100818.94;;;20.25;52.33
18784;BME280;9520;50.954;6.968;2023-05-11T00:49:20;100812.09;;;20.20;52.87
18784;BME280;9520;50.954;6.968;2023-05-11T00:49:44;100813.88;;;20.19;53.48
18784;BME280;9520;50.954;6.968;2023-05-11T00:50:07;100822.72;;;20.21;53.73
18784;BME280;9520;50.954;6.968;2023-05-11T00:50:30;100814.59;;;20.23;53.22
18784;BME280;9520;50.954;6.968;2023-05-11T00:50:53;100812.78;;;20.23;53.00
18784;BME280;9520;50.954;6.968;2023-05-11T00:51:15;100818.06;;;20.25;52.38
18784;BME280;9520;50.954;6.968;2023-05-11T00:51:37;100825.22;;;20.24;53.23
18784;BME280;9520;50.954;6.968;2023-05-11T00:52:01;100821.69;;;20.24;53.38
18784;BME280;9520;50.954;6.968;2023-05-11T00:52:23;100811.91;;;20.23;53.47
18784;BME280;9520;50.954;6.968;2023-05-11T00:52:46;100820.75;;;20.25;53.56
18784;BME280;9520;50.954;6.968;2023-05-11T00:53:08;100822.47;;;20.26;53.71
18784;BME280;9520;50.954;6.968;2023-05-11T00:53:29;100820.56;;;20.28;53.86
18784;BME280;9520;50.954;6.968;2023-05-11T00:53:52;100816.00;;;20.30;53.44
18784;BME280;9520;50.954;6.968;2023-05-11T00:54:14;100821.34;;;20.32;54.33
18784;BME280;9520;50.954;6.968;2023-05-11T00:54:36;100824.00;;;20.32;54.35
18784;BME280;9520;50.954;6.968;2023-05-11T00:54:58;100818.53;;;20.33;54.57
18784;BME280;9520;50.954;6.968;2023-05-11T00:55:21;100802.78;;;20.27;54.87
18784;BME280;9520;50.954;6.968;2023-05-11T00:55:43;100819.41;;;20.34;54.71
18784;BME280;9520;50.954;6.968;2023-05-11T00:56:05;100815.00;;;20.33;54.29
18784;BME280;9520;50.954;6.968;2023-05-11T00:56:27;100817.47;;;20.37;53.95
18784;BME280;9520;50.954;6.968;2023-05-11T00:56:49;100814.06;;;20.34;53.09
18784;BME280;9520;50.954;6.968;2023-05-11T00:57:12;100818.47;;;20.35;52.97
18784;BME280;9520;50.954;6.968;2023-05-11T00:57:34;100818.47;;;20.35;52.97
18784;BME280;9520;50.954;6.968;2023-05-11T00:57:56;100828.94;;;20.39;53.25
18784;BME280;9520;50.954;6.968;2023-05-11T00:58:18;100818.28;;;20.38;53.08
18784;BME280;9520;50.954;6.968;2023-05-11T00:58:40;100824.38;;;20.41;53.09
18784;BME280;9520;50.954;6.968;2023-05-11T00:59:03;100817.47;;;20.37;52.98
18784;BME280;9520;50.954;6.968;2023-05-11T00:59:25;100826.25;;;20.39;53.27
18784;BME280;9520;50.954;6.968;2023-05-11T00:59:48;100814.84;;;20.36;53.59
18784;BME280;9520;50.954;6.968;2023-05-11T01:00:10;100825.31;;;20.40;53.86
18784;BME280;9520;50.954;6.968;2023-05-11T01:00:32;100831.56;;;20.41;53.87
18784;BME280;9520;50.954;6.968;2023-05-11T01:00:55;100830.63;;;20.42;53.78
18784;BME280;9520;50.954;6.968;2023-05-11T01:01:17;100823.34;;;20.44;53.36
18784;BME280;9520;50.954;6.968;2023-05-11T01:01:39;100822.47;;;20.43;52.93
18784;BME280;9520;50.954;6.968;2023-05-11T01:02:01;100824.22;;;20.44;52.80
18784;BME280;9520;50.954;6.968;2023-05-11T01:02:25;100827.81;;;20.43;52.69
18784;BME280;9520;50.954;6.968;2023-05-11T01:02:47;100827.94;;;20.42;52.97
18784;BME280;9520;50.954;6.968;2023-05-11T01:03:09;100824.22;;;20.44;52.97
18784;BME280;9520;50.954;6.968;2023-05-11T01:03:32;100821.38;;;20.47;52.65
18784;BME280;9520;50.954;6.968;2023-05-11T01:03:54;100816.41;;;20.40;51.91
18784;BME280;9520;50.954;6.968;2023-05-11T01:04:18;100827.69;;;20.46;51.33
18784;BME280;9520;50.954;6.968;2023-05-11T01:04:40;100833.13;;;20.45;51.62
18784;BME280;9520;50.954;6.968;2023-05-11T01:05:02;100832.19;;;20.46;51.59
18784;BME280;9520;50.954;6.968;2023-05-11T01:05:29;100834.06;;;20.44;51.39
18784;BME280;9520;50.954;6.968;2023-05-11T01:06:02;100826.13;;;20.42;51.38
18784;BME280;9520;50.954;6.968;2023-05-11T01:06:28;100822.66;;;20.40;52.09
18784;BME280;9520;50.954;6.968;2023-05-11T01:07:01;100830.50;;;20.43;52.78
18784;BME280;9520;50.954;6.968;2023-05-11T01:07:29;100834.16;;;20.42;52.10
18784;BME280;9520;50.954;6.968;2023-05-11T01:07:59;100829.75;;;20.41;52.17
18784;BME280;9520;50.954;6.968;2023-05-11T01:08:29;100833.38;;;20.40;52.08
18784;BME280;9520;50.954;6.968;2023-05-11T01:09:00;100831.69;;;20.38;52.52
18784;BME280;9520;50.954;6.968;2023-05-11T01:09:32;100830.06;;;20.35;52.47
18784;BME280;9520;50.954;6.968;2023-05-11T01:10:03;100831.81;;;20.36;52.99
18784;BME280;9520;50.954;6.968;2023-05-11T01:10:32;100830.84;;;20.37;52.99
18784;BME280;9520;50.954;6.968;2023-05-11T01:10:57;100836.13;;;20.39;52.69
18784;BME280;9520;50.954;6.968;2023-05-11T01:11:28;100837.06;;;20.38;52.49
18784;BME280;9520;50.954;6.968;2023-05-11T01:12:02;100838.97;;;20.36;52.50
18784;BME280;9520;50.954;6.968;2023-05-11T01:12:32;100835.41;;;20.35;51.71
18784;BME280;9520;50.954;6.968;2023-05-11T01:13:07;100830.13;;;20.34;51.36
18784;BME280;9520;50.954;6.968;2023-05-11T01:13:33;100829.25;;;20.33;51.78
18784;BME280;9520;50.954;6.968;2023-05-11T01:14:02;100831.19;;;20.31;51.96
18784;BME280;9520;50.954;6.968;2023-05-11T01:14:34;100808.72;;;20.16;52.44
18784;BME280;9520;50.954;6.968;2023-05-11T01:15:01;100825.00;;;20.29;52.29
18784;BME280;9520;50.954;6.968;2023-05-11T01:15:31;100832.09;;;20.30;52.30
18784;BME280;9520;50.954;6.968;2023-05-11T01:16:02;100828.50;;;20.31;52.73
18784;BME280;9520;50.954;6.968;2023-05-11T01:16:26;100831.94;;;20.33;52.54
18784;BME280;9520;50.954;6.968;2023-05-11T01:16:54;100831.06;;;20.33;52.29
18784;BME280;9520;50.954;6.968;2023-05-11T01:17:21;100823.13;;;20.31;52.33
18784;BME280;9520;50.954;6.968;2023-05-11T01:17:51;100831.06;;;20.33;52.00
18784;BME280;9520;50.954;6.968;2023-05-11T01:18:21;100836.53;;;20.31;52.29
18784;BME280;9520;50.954;6.968;2023-05-11T01:18:51;100817.13;;;20.26;52.37
18784;BME280;9520;50.954;6.968;2023-05-11T01:19:18;100824.88;;;20.32;52.08
18784;BME280;9520;50.954;6.968;2023-05-11T01:19:57;100823.34;;;20.26;51.66
18784;BME280;9520;50.954;6.968;2023-05-11T01:20:24;100823.41;;;20.25;51.18
18784;BME280;9520;50.954;6.968;2023-05-11T01:20:48;100824.53;;;20.21;50.92
18784;BME280;9520;50.954;6.968;2023-05-11T01:21:14;100831.53;;;20.23;50.83
18784;BME280;9520;50.954;6.968;2023-05-11T01:21:39;100830.84;;;20.20;51.46
18784;BME280;9520;50.954;6.968;2023-05-11T01:22:07;100829.97;;;20.19;51.55
18784;BME280;9520;50.954;6.968;2023-05-11T01:22:42;100818.56;;;20.16;51.98
18784;BME280;9520;50.954;6.968;2023-05-11T01:23:35;100822.47;;;20.26;52.45
18784;BME280;9520;50.954;6.968;2023-05-11T01:24:22;100824.13;;;20.28;52.75
18784;BME280;9520;50.954;6.968;2023-05-11T01:24:57;100824.03;;;20.30;52.44
18784;BME280;9520;50.954;6.968;2023-05-11T01:25:41;100823.34;;;20.26;52.68
18784;BME280;9520;50.954;6.968;2023-05-11T01:26:20;100829.56;;;20.27;52.72
18784;BME280;9520;50.954;6.968;2023-05-11T01:26:58;100830.53;;;20.26;52.41
18784;BME280;9520;50.954;6.968;2023-05-11T01:27:42;100825.16;;;20.26;52.14
18784;BME280;9520;50.954;6.968;2023-05-11T01:28:22;100830.53;;;20.26;52.60
18784;BME280;9520;50.954;6.968;2023-05-11T01:29:06;100827.84;;;20.26;52.48
18784;BME280;9520;50.954;6.968;2023-05-11T01:30:33;100824.53;;;20.21;52.88
18784;BME280;9520;50.954;6.968;2023-05-11T01:31:00;100829.81;;;20.22;52.67
18784;BME280;9520;50.954;6.968;2023-05-11T01:31:29;100831.00;;;20.17;51.97
18784;BME280;9520;50.954;6.968;2023-05-11T01:31:53;100823.91;;;20.16;52.09
18784;BME280;9520;50.954;6.968;2023-05-11T01:32:23;100825.97;;;20.11;52.17
18784;BME280;9520;50.954;6.968;2023-05-11T01:32:48;100829.09;;;20.19;52.38
18784;BME280;9520;50.954;6.968;2023-05-11T01:33:13;100826.41;;;20.19;52.59
18784;BME280;9520;50.954;6.968;2023-05-11T01:33:45;100824.78;;;20.16;52.39
18784;BME280;9520;50.954;6.968;2023-05-11T01:34:22;100815.88;;;20.16;52.59
18784;BME280;9520;50.954;6.968;2023-05-11T01:34:49;100821.22;;;20.16;51.65
18784;BME280;9520;50.954;6.968;2023-05-11T01:35:17;100821.47;;;20.11;51.22
18784;BME280;9520;50.954;6.968;2023-05-11T01:35:49;100827.78;;;20.10;51.81
18784;BME280;9520;50.954;6.968;2023-05-11T01:36:20;100824.06;;;20.13;52.41
18784;BME280;9520;50.954;6.968;2023-05-11T01:36:53;100825.78;;;20.14;52.12
18784;BME280;9520;50.954;6.968;2023-05-11T01:37:21;100820.59;;;20.11;51.97
18784;BME280;9520;50.954;6.968;2023-05-11T01:37:48;100819.91;;;20.07;52.54
18784;BME280;9520;50.954;6.968;2023-05-11T01:38:13;100820.91;;;20.05;52.60
18784;BME280;9520;50.954;6.968;2023-05-11T01:38:39;100822.72;;;20.04;52.51
18784;BME280;9520;50.954;6.968;2023-05-11T01:39:09;100811.00;;;20.07;52.50
18784;BME280;9520;50.954;6.968;2023-05-11T01:39:46;100823.34;;;20.09;52.90
18784;BME280;9520;50.954;6.968;2023-05-11T01:40:15;100827.84;;;20.09;53.10
18784;BME280;9520;50.954;6.968;2023-05-11T01:40:43;100801.84;;;19.94;53.00
18784;BME280;9520;50.954;6.968;2023-05-11T01:41:17;100823.66;;;20.03;53.40
18784;BME280;9520;50.954;6.968;2023-05-11T01:41:50;100826.19;;;20.06;53.50
18784;BME280;9520;50.954;6.968;2023-05-11T01:42:14;100817.31;;;20.06;53.03
18784;BME280;9520;50.954;6.968;2023-05-11T01:42:41;100817.63;;;20.00;52.98
18784;BME280;9520;50.954;6.968;2023-05-11T01:43:08;100819.19;;;20.04;52.79
18784;BME280;9520;50.954;6.968;2023-05-11T01:43:34;100826.13;;;20.08;52.87
18784;BME280;9520;50.954;6.968;2023-05-11T01:43:59;100820.91;;;20.05;52.65
18784;BME280;9520;50.954;6.968;2023-05-11T01:44:24;100824.41;;;20.07;52.77
18784;BME280;9520;50.954;6.968;2023-05-11T01:44:50;100822.59;;;20.07;52.92
18784;BME280;9520;50.954;6.968;2023-05-11T01:45:15;100823.28;;;20.11;52.90
18784;BME280;9520;50.954;6.968;2023-05-11T01:45:43;100828.56;;;20.12;52.95
18784;BME280;9520;50.954;6.968;2023-05-11T01:46:11;100818.88;;;20.10;52.70
18784;BME280;9520;50.954;6.968;2023-05-11T01:46:34;100823.34;;;20.09;52.38
18784;BME280;9520;50.954;6.968;2023-05-11T01:46:59;100824.28;;;20.08;52.27
18784;BME280;9520;50.954;6.968;2023-05-11T01:47:23;100828.00;;;20.06;52.38
18784;BME280;9520;50.954;6.968;2023-05-11T01:47:49;100824.63;;;20.02;52.55
18784;BME280;9520;50.954;6.968;2023-05-11T01:48:14;100822.97;;;20.00;52.04
18784;BME280;9520;50.954;6.968;2023-05-11T01:48:39;100829.13;;;20.02;52.16
18784;BME280;9520;50.954;6.968;2023-05-11T01:49:05;100834.56;;;20.00;52.43
18784;BME280;9520;50.954;6.968;2023-05-11T01:49:28;100822.97;;;20.00;52.57
18784;BME280;9520;50.954;6.968;2023-05-11T01:49:53;100826.44;;;20.02;52.60
18784;BME280;9520;50.954;6.968;2023-05-11T01:50:17;100827.31;;;20.02;52.42
18784;BME280;9520;50.954;6.968;2023-05-11T01:50:43;100829.03;;;20.03;52.47
18784;BME280;9520;50.954;6.968;2023-05-11T01:51:06;100829.03;;;20.03;52.73
18784;BME280;9520;50.954;6.968;2023-05-11T01:51:31;100829.81;;;20.05;52.48
18784;BME280;9520;50.954;6.968;2023-05-11T01:51:56;100821.72;;;20.07;52.55
18784;BME280;9520;50.954;6.968;2023-05-11T01:52:20;100829.66;;;20.08;52.90
18784;BME280;9520;50.954;6.968;2023-05-11T01:52:45;100829.56;;;20.10;52.77
18784;BME280;9520;50.954;6.968;2023-05-11T01:53:09;100827.69;;;20.12;52.49
18784;BME280;9520;50.954;6.968;2023-05-11T01:53:34;100825.91;;;20.12;52.17
18784;BME280;9520;50.954;6.968;2023-05-11T01:53:59;100833.19;;;20.09;52.36
18784;BME280;9520;50.954;6.968;2023-05-11T01:54:22;100836.91;;;20.06;52.46
18784;BME280;9520;50.954;6.968;2023-05-11T01:54:45;100836.06;;;20.06;52.48
18784;BME280;9520;50.954;6.968;2023-05-11T01:55:09;100834.38;;;20.03;52.71
18784;BME280;9520;50.954;6.968;2023-05-11T01:55:33;100833.53;;;20.03;52.56
18784;BME280;9520;50.954;6.968;2023-05-11T01:55:56;100840.59;;;20.04;52.55
18784;BME280;9520;50.954;6.968;2023-05-11T01:56:20;100839.91;;;20.00;52.11
18784;BME280;9520;50.954;6.968;2023-05-11T01:56:43;100834.78;;;19.96;52.57
18784;BME280;9520;50.954;6.968;2023-05-11T01:57:07;100841.09;;;19.95;52.31
18784;BME280;9520;50.954;6.968;2023-05-11T01:57:30;100833.97;;;19.94;52.32
18784;BME280;9520;50.954;6.968;2023-05-11T01:57:54;100840.31;;;19.93;52.64
18784;BME280;9520;50.954;6.968;2023-05-11T01:58:17;100839.50;;;19.91;52.20
18784;BME280;9520;50.954;6.968;2023-05-11T01:58:42;100840.44;;;19.90;51.72
18784;BME280;9520;50.954;6.968;2023-05-11T01:59:05;100842.25;;;19.89;51.36
18784;BME280;9520;50.954;6.968;2023-05-11T01:59:27;100845.16;;;19.84;51.27
18784;BME280;9520;50.954;6.968;2023-05-11T01:59:51;100839.97;;;19.81;51.66
18784;BME280;9520;50.954;6.968;2023-05-11T02:00:15;100836.44;;;19.81;51.92
18784;BME280;9520;50.954;6.968;2023-05-11T02:00:40;100849.25;;;19.74;52.46
18784;BME280;9520;50.954;6.968;2023-05-11T02:01:04;100835.16;;;19.71;52.54
18784;BME280;9520;50.954;6.968;2023-05-11T02:01:28;100833.66;;;19.65;52.44
18784;BME280;9520;50.954;6.968;2023-05-11T02:01:51;100848.47;;;19.72;52.53
18784;BME280;9520;50.954;6.968;2023-05-11T02:02:13;100846.69;;;19.73;52.26
18784;BME280;9520;50.954;6.968;2023-05-11T02:02:37;100830.13;;;19.65;52.42
18784;BME280;9520;50.954;6.968;2023-05-11T02:03:00;100846.50;;;19.76;52.31
18784;BME280;9520;50.954;6.968;2023-05-11T02:03:23;100842.97;;;19.75;52.09
18784;BME280;9520;50.954;6.968;2023-05-11T02:03:48;100843.91;;;19.74;51.92
18784;BME280;9520;50.954;6.968;2023-05-11T02:04:13;100851.94;;;19.74;51.74
18784;BME280;9520;50.954;6.968;2023-05-11T02:04:37;100844.78;;;19.75;52.35
18784;BME280;9520;50.954;6.968;2023-05-11T02:05:00;100844.06;;;19.71;52.66
18784;BME280;9520;50.954;6.968;2023-05-11T02:05:24;100845.88;;;19.71;52.80
18784;BME280;9520;50.954;6.968;2023-05-11T02:05:49;100847.50;;;19.73;53.17
18784;BME280;9520;50.954;6.968;2023-05-11T02:06:14;100817.84;;;19.61;53.38
18784;BME280;9520;50.954;6.968;2023-05-11T02:06:37;100831.44;;;19.73;53.18
18784;BME280;9520;50.954;6.968;2023-05-11T02:07:00;100845.47;;;19.78;53.34
18784;BME280;9520;50.954;6.968;2023-05-11T02:07:24;100845.63;;;19.75;53.11
18784;BME280;9520;50.954;6.968;2023-05-11T02:07:48;100844.84;;;19.73;53.08
18784;BME280;9520;50.954;6.968;2023-05-11T02:08:12;100850.28;;;19.72;53.08
18784;BME280;9520;50.954;6.968;2023-05-11T02:08:35;100845.00;;;19.70;52.95
18784;BME280;9520;50.954;6.968;2023-05-11T02:09:00;100845.00;;;19.70;52.80
18784;BME280;9520;50.954;6.968;2023-05-11T02:09:22;100853.09;;;19.69;52.59
18784;BME280;9520;50.954;6.968;2023-05-11T02:09:46;100838.06;;;19.66;52.64
18784;BME280;9520;50.954;6.968;2023-05-11T02:10:11;100843.50;;;19.65;52.78
18784;BME280;9520;50.954;6.968;2023-05-11T02:10:34;100839.94;;;19.64;52.92
18784;BME280;9520;50.954;6.968;2023-05-11T02:10:59;100847.97;;;19.64;53.16
18784;BME280;9520;50.954;6.968;2023-05-11T02:11:23;100839.25;;;19.61;53.42
18784;BME280;9520;50.954;6.968;2023-05-11T02:11:48;100844.44;;;19.64;53.37
18784;BME280;9520;50.954;6.968;2023-05-11T02:12:12;100842.56;;;19.66;53.15
18784;BME280;9520;50.954;6.968;2023-05-11T02:12:37;100846.28;;;19.63;52.82
18784;BME280;9520;50.954;6.968;2023-05-11T02:13:01;100842.63;;;19.64;52.94
18784;BME280;9520;50.954;6.968;2023-05-11T02:13:23;100848.78;;;19.66;53.00
18784;BME280;9520;50.954;6.968;2023-05-11T02:13:48;100850.53;;;19.67;52.73
18784;BME280;9520;50.954;6.968;2023-05-11T02:14:12;100851.47;;;19.66;52.62
18784;BME280;9520;50.954;6.968;2023-05-11T02:14:37;100850.66;;;19.64;52.77
18784;BME280;9520;50.954;6.968;2023-05-11T02:15:00;100847.97;;;19.64;53.17
18784;BME280;9520;50.954;6.968;2023-05-11T02:15:24;100856.97;;;19.63;53.36
18784;BME280;9520;50.954;6.968;2023-05-11T02:15:50;100853.50;;;19.61;53.51